Cielo Di Iyo — HOET — position and weather

sailwx.info

Track history (hours):
 
Tides and Currents Weather Stations Pressure Air Temp Water Temp Dewpoint Dewpoint Depression Visibility Wind Speed Wind Dir Waves Ship Positions

Cielo Di Iyo

Last reported at 2017-Apr-16 22:10 UTC. Time now 2017-May-22 19:25 UTC.
Position N 49°03' W 005°25'.
Warning: this ship's position is 35 days out of date.

Length 183 m; draft 9.8 m.

Type: Cargo ship. MMSI: 372771000.

Date/timePositionNaut miles runAvg speedWind from/ knotsBaromVisibWave heightAir tempDewpointWater temp
2017-Apr-16 22:10N 49°03' W 005°25'512.1
2017-Apr-16 21:46N 49°06' W 005°19'411.9
2017-Apr-16 21:26N 49°08' W 005°14'4611.2
2017-Apr-16 17:19N 49°32' W 004°14'1812.2
2017-Apr-16 15:48N 49°42' W 003°49'412.6
2017-Apr-16 15:30N 49°44' W 003°44'612.7
2017-Apr-16 15:00N 49°47' W 003°36'1312.7
2017-Apr-16 14:00N 49°54' W 003°19'612.2
2017-Apr-16 13:30N 49°57' W 003°11'612.0
2017-Apr-16 13:00N 49°58' W 003°02'611.5
2017-Apr-16 12:30N 49°60' W 002°53'611.1
2017-Apr-16 11:58N 50°01' W 002°44'5110.5
2017-Apr-16 07:03N 50°15' W 001°27'113.2
2017-Apr-16 07:00N 50°15' W 001°26'713.6
2017-Apr-16 06:30N 50°17' W 001°16'1114.5
2017-Apr-16 05:44N 50°20' W 000°59'414.6
2017-Apr-16 05:27N 50°21' W 000°53'1514.3
2017-Apr-16 04:22N 50°25' W 000°29'513.7
2017-Apr-16 04:00N 50°26' W 000°22'713.3
2017-Apr-16 03:30N 50°28' W 000°11'612.9
2017-Apr-16 03:00N 50°29' W 000°02'612.6
2017-Apr-16 02:30N 50°31' E 000°08'612.1
2017-Apr-16 02:00N 50°33' E 000°17'611.8
2017-Apr-16 01:30N 50°34' E 000°26'611.3
2017-Apr-16 01:00N 50°36' E 000°34'611.2
2017-Apr-16 00:30N 50°39' E 000°41'611.0
2017-Apr-16 00:01N 50°43' E 000°48'611.1
2017-Apr-15 23:31N 50°46' E 000°55'611.7
2017-Apr-15 23:01N 50°50' E 001°02'612.4
2017-Apr-15 22:30N 50°54' E 001°09'713.4
2017-Apr-15 22:00N 50°59' E 001°17'714.4
2017-Apr-15 21:30N 51°03' E 001°26'714.8
2017-Apr-15 21:00N 51°08' E 001°35'714.2
2017-Apr-15 20:30N 51°12' E 001°44'713.2
2017-Apr-15 20:00N 51°18' E 001°49'612.4
2017-Apr-15 19:30N 51°24' E 001°53'611.7
2017-Apr-15 19:00N 51°28' E 001°60'611.2
2017-Apr-15 18:30N 51°32' E 002°05'611.0
2017-Apr-15 18:00N 51°36' E 002°11'510.7
2017-Apr-15 17:30N 51°41' E 002°17'29711.6
2017-Apr-14 15:49N 55°58' E 006°27'411.9
2017-Apr-14 15:30N 56°01' E 006°30'611.9
2017-Apr-14 15:00N 56°07' E 006°36'712.1
2017-Apr-14 14:27N 56°12' E 006°42'15110.2
2017-Apr-13 23:40N 57°48' E 010°17'610.1
2017-Apr-13 23:05N 57°49' E 010°28'110.1
2017-Apr-13 23:00N 57°49' E 010°29'5 9.9
2017-Apr-13 22:30N 57°50' E 010°38'5 9.8
2017-Apr-13 21:58N 57°48' E 010°47'511.3
2017-Apr-13 21:30N 57°44' E 010°55'611.6
2017-Apr-13 21:00N 57°40' E 011°03'611.8
2017-Apr-13 20:30N 57°37' E 011°11'611.8
2017-Apr-13 20:00N 57°33' E 011°19'611.9
2017-Apr-13 19:30N 57°29' E 011°27'611.7
2017-Apr-13 18:59N 57°23' E 011°31'612.0
2017-Apr-13 18:30N 57°17' E 011°34'612.1
2017-Apr-13 17:59N 57°11' E 011°38'811.7
2017-Apr-13 17:20N 57°04' E 011°43'112 9.3
2017-Apr-13 05:18N 55°14' E 011°06'3 8.9
2017-Apr-13 05:00N 55°11' E 011°05'5 9.8
2017-Apr-13 04:30N 55°07' E 011°03'5 9.8
2017-Apr-13 04:00N 55°02' E 011°02'5 9.7
2017-Apr-13 03:30N 54°57' E 010°58'5 9.2
2017-Apr-13 03:00N 54°54' E 010°54'5 9.6
2017-Apr-13 02:30N 54°49' E 010°52'5 9.8
2017-Apr-13 02:00N 54°44' E 010°51'4 8.8
2017-Apr-13 01:30N 54°40' E 010°50'1 1.7
2017-Apr-13 01:00N 54°39' E 010°48'2 3.0
2017-Apr-13 00:30N 54°39' E 010°51'4 8.7
2017-Apr-13 00:00N 54°37' E 010°58'4 9.0
2017-Apr-12 23:30N 54°37' E 011°05'4 8.6
2017-Apr-12 23:00N 54°36' E 011°13'510.7
2017-Apr-12 22:30N 54°33' E 011°21'510.8
2017-Apr-12 22:00N 54°31' E 011°29'510.2
2017-Apr-12 21:30N 54°29' E 011°37'610.6
2017-Apr-12 20:59N 54°26' E 011°46'77 9.8
2017-Apr-12 13:04N 54°44' E 013°56'110.8
2017-Apr-12 12:59N 54°44' E 013°57'510.8
2017-Apr-12 12:30N 54°42' E 014°05'2110.4
2017-Apr-12 10:30N 54°40' E 014°41'611.3
2017-Apr-12 09:59N 54°42' E 014°51'  
2017-Apr-09 13:19N 55°38' E 019°53'2813.4
2017-Apr-09 11:13N 55°31' E 019°05'313.4
2017-Apr-09 10:59N 55°30' E 018°59'713.6
2017-Apr-09 10:27N 55°28' E 018°47'613.5
2017-Apr-09 10:00N 55°27' E 018°37'6213.3
2017-Apr-09 05:20N 55°12' E 016°51'513.2
2017-Apr-09 04:56N 55°11' E 016°42'713.1
2017-Apr-09 04:23N 55°09' E 016°30'713.0
2017-Apr-09 03:50N 55°07' E 016°17'513.0
2017-Apr-09 03:27N 55°06' E 016°09'613.1
2017-Apr-09 03:00N 55°02' E 016°00'713.3
2017-Apr-09 02:30N 54°59' E 015°51'713.5
2017-Apr-09 01:58N 54°55' E 015°40'713.6
2017-Apr-09 01:28N 54°51' E 015°31'613.5
2017-Apr-09 01:00N 54°47' E 015°22'713.2
2017-Apr-09 00:30N 54°43' E 015°13'713.0
2017-Apr-09 00:00N 54°39' E 015°03'712.7
2017-Apr-08 23:29N 54°37' E 014°53'613.2
2017-Apr-08 23:00N 54°36' E 014°42'1013.4
2017-Apr-08 22:15N 54°35' E 014°24'513.3
2017-Apr-08 21:52N 54°37' E 014°16'513.4
2017-Apr-08 21:30N 54°39' E 014°09'713.4
2017-Apr-08 20:59N 54°43' E 013°59'713.3
2017-Apr-08 20:25N 54°48' E 013°49'613.0
2017-Apr-08 20:00N 54°51' E 013°41'2713.2
2017-Apr-08 17:56N 55°09' E 013°05'713.0
2017-Apr-08 17:25N 55°13' E 012°56'513.1
2017-Apr-08 17:00N 55°16' E 012°48'612.5
2017-Apr-08 16:30N 55°18' E 012°38'612.2
2017-Apr-08 16:00N 55°25' E 012°40'611.9
2017-Apr-08 15:30N 55°30' E 012°43'510.9
2017-Apr-08 15:00N 55°34' E 012°49'9 9.3
2017-Apr-08 14:00N 55°43' E 012°52'612.1
2017-Apr-08 13:30N 55°48' E 012°47'612.0
2017-Apr-08 13:00N 55°54' E 012°44'612.7
2017-Apr-08 12:30N 56°00' E 012°40'611.5
2017-Apr-08 12:00N 56°05' E 012°35'612.2
2017-Apr-08 11:30N 56°09' E 012°26'2411.1
2017-Apr-08 09:19N 56°28' E 011°59'613.1
2017-Apr-08 08:54N 56°33' E 011°57'512.9
2017-Apr-08 08:30N 56°38' E 011°55'713.0
2017-Apr-08 08:00N 56°45' E 011°52'713.2
2017-Apr-08 07:27N 56°52' E 011°48'813.1
2017-Apr-08 06:48N 56°60' E 011°43'413.0
2017-Apr-08 06:30N 57°03' E 011°40'713.4
2017-Apr-08 05:59N 57°10' E 011°36'613.3
2017-Apr-08 05:30N 57°16' E 011°33'713.1
2017-Apr-08 04:59N 57°22' E 011°29'613.4
2017-Apr-08 04:30N 57°28' E 011°23'713.5
2017-Apr-08 03:59N 57°32' E 011°13'613.2
2017-Apr-08 03:30N 57°37' E 011°04'713.5
2017-Apr-08 03:00N 57°42' E 010°56'713.4
2017-Apr-08 02:30N 57°46' E 010°47'713.6
2017-Apr-08 02:00N 57°50' E 010°36'713.7
2017-Apr-08 01:30N 57°49' E 010°23'713.6
2017-Apr-08 01:00N 57°48' E 010°10'713.7
2017-Apr-08 00:30N 57°47' E 009°57'713.5
2017-Apr-08 00:00N 57°46' E 009°45'713.4
2017-Apr-07 23:30N 57°45' E 009°32'713.0
2017-Apr-07 23:00N 57°44' E 009°20'713.2
2017-Apr-07 22:30N 57°43' E 009°08'713.4
2017-Apr-07 21:59N 57°42' E 008°55'713.6
2017-Apr-07 21:29N 57°41' E 008°42'613.3
2017-Apr-07 21:00N 57°40' E 008°31'3113.1
2017-Apr-07 18:40N 57°42' E 007°34'213.2
2017-Apr-07 18:30N 57°42' E 007°29'612.8
2017-Apr-07 18:00N 57°42' E 007°17'612.7
2017-Apr-07 17:30N 57°43' E 007°05'612.7
2017-Apr-07 17:00N 57°43' E 006°54'612.3
2017-Apr-07 16:30N 57°43' E 006°42'611.8
2017-Apr-07 15:59N 57°45' E 006°31'612.1
2017-Apr-07 15:30N 57°48' E 006°23'612.2
2017-Apr-07 15:00N 57°53' E 006°14'612.0
2017-Apr-07 14:30N 57°57' E 006°06'2411.9
2017-Apr-07 12:30N 58°12' E 005°32'1212.3
2017-Apr-07 11:34N 58°20' E 005°15'112.6
2017-Apr-07 11:30N 58°20' E 005°14'612.7
2017-Apr-07 11:00N 58°24' E 005°05'713.1
2017-Apr-07 10:30N 58°28' E 004°55'713.4
2017-Apr-07 10:00N 58°33' E 004°46'713.2
2017-Apr-07 09:30N 58°37' E 004°36'  
Track history (hours):
 
Tides and Currents Weather Stations Pressure Air Temp Water Temp Dewpoint Dewpoint Depression Visibility Wind Speed Wind Dir Waves Ship Positions

Cielo Di Iyo

Last reported at 2017-Apr-16 22:10 UTC. Time now 2017-May-22 19:25 UTC.
Position N 49°03' W 005°25'.
Warning: this ship's position is 35 days out of date.

Length 183 m; draft 9.8 m.

Type: Cargo ship. MMSI: 372771000.

Date/timePositionNaut miles runAvg speedWind from/ knotsBaromVisibWave heightAir tempDewpointWater temp
2017-Apr-16 22:10N 49°03' W 005°25'512.1
2017-Apr-16 21:46N 49°06' W 005°19'411.9
2017-Apr-16 21:26N 49°08' W 005°14'4611.2
2017-Apr-16 17:19N 49°32' W 004°14'1812.2
2017-Apr-16 15:48N 49°42' W 003°49'412.6
2017-Apr-16 15:30N 49°44' W 003°44'612.7
2017-Apr-16 15:00N 49°47' W 003°36'1312.7
2017-Apr-16 14:00N 49°54' W 003°19'612.2
2017-Apr-16 13:30N 49°57' W 003°11'612.0
2017-Apr-16 13:00N 49°58' W 003°02'611.5
2017-Apr-16 12:30N 49°60' W 002°53'611.1
2017-Apr-16 11:58N 50°01' W 002°44'5110.5
2017-Apr-16 07:03N 50°15' W 001°27'113.2
2017-Apr-16 07:00N 50°15' W 001°26'713.6
2017-Apr-16 06:30N 50°17' W 001°16'1114.5
2017-Apr-16 05:44N 50°20' W 000°59'414.6
2017-Apr-16 05:27N 50°21' W 000°53'1514.3
2017-Apr-16 04:22N 50°25' W 000°29'513.7
2017-Apr-16 04:00N 50°26' W 000°22'713.3
2017-Apr-16 03:30N 50°28' W 000°11'612.9
2017-Apr-16 03:00N 50°29' W 000°02'612.6
2017-Apr-16 02:30N 50°31' E 000°08'612.1
2017-Apr-16 02:00N 50°33' E 000°17'611.8
2017-Apr-16 01:30N 50°34' E 000°26'611.3
2017-Apr-16 01:00N 50°36' E 000°34'611.2
2017-Apr-16 00:30N 50°39' E 000°41'611.0
2017-Apr-16 00:01N 50°43' E 000°48'611.1
2017-Apr-15 23:31N 50°46' E 000°55'611.7
2017-Apr-15 23:01N 50°50' E 001°02'612.4
2017-Apr-15 22:30N 50°54' E 001°09'713.4
2017-Apr-15 22:00N 50°59' E 001°17'714.4
2017-Apr-15 21:30N 51°03' E 001°26'714.8
2017-Apr-15 21:00N 51°08' E 001°35'714.2
2017-Apr-15 20:30N 51°12' E 001°44'713.2
2017-Apr-15 20:00N 51°18' E 001°49'612.4
2017-Apr-15 19:30N 51°24' E 001°53'611.7
2017-Apr-15 19:00N 51°28' E 001°60'611.2
2017-Apr-15 18:30N 51°32' E 002°05'611.0
2017-Apr-15 18:00N 51°36' E 002°11'510.7
2017-Apr-15 17:30N 51°41' E 002°17'29711.6
2017-Apr-14 15:49N 55°58' E 006°27'411.9
2017-Apr-14 15:30N 56°01' E 006°30'611.9
2017-Apr-14 15:00N 56°07' E 006°36'712.1
2017-Apr-14 14:27N 56°12' E 006°42'15110.2
2017-Apr-13 23:40N 57°48' E 010°17'610.1
2017-Apr-13 23:05N 57°49' E 010°28'110.1
2017-Apr-13 23:00N 57°49' E 010°29'5 9.9
2017-Apr-13 22:30N 57°50' E 010°38'5 9.8
2017-Apr-13 21:58N 57°48' E 010°47'511.3
2017-Apr-13 21:30N 57°44' E 010°55'611.6
2017-Apr-13 21:00N 57°40' E 011°03'611.8
2017-Apr-13 20:30N 57°37' E 011°11'611.8
2017-Apr-13 20:00N 57°33' E 011°19'611.9
2017-Apr-13 19:30N 57°29' E 011°27'611.7
2017-Apr-13 18:59N 57°23' E 011°31'612.0
2017-Apr-13 18:30N 57°17' E 011°34'612.1
2017-Apr-13 17:59N 57°11' E 011°38'811.7
2017-Apr-13 17:20N 57°04' E 011°43'112 9.3
2017-Apr-13 05:18N 55°14' E 011°06'3 8.9
2017-Apr-13 05:00N 55°11' E 011°05'5 9.8
2017-Apr-13 04:30N 55°07' E 011°03'5 9.8
2017-Apr-13 04:00N 55°02' E 011°02'5 9.7
2017-Apr-13 03:30N 54°57' E 010°58'5 9.2
2017-Apr-13 03:00N 54°54' E 010°54'5 9.6
2017-Apr-13 02:30N 54°49' E 010°52'5 9.8
2017-Apr-13 02:00N 54°44' E 010°51'4 8.8
2017-Apr-13 01:30N 54°40' E 010°50'1 1.7
2017-Apr-13 01:00N 54°39' E 010°48'2 3.0
2017-Apr-13 00:30N 54°39' E 010°51'4 8.7
2017-Apr-13 00:00N 54°37' E 010°58'4 9.0
2017-Apr-12 23:30N 54°37' E 011°05'4 8.6
2017-Apr-12 23:00N 54°36' E 011°13'510.7
2017-Apr-12 22:30N 54°33' E 011°21'510.8
2017-Apr-12 22:00N 54°31' E 011°29'510.2
2017-Apr-12 21:30N 54°29' E 011°37'610.6
2017-Apr-12 20:59N 54°26' E 011°46'77 9.8
2017-Apr-12 13:04N 54°44' E 013°56'110.8
2017-Apr-12 12:59N 54°44' E 013°57'510.8
2017-Apr-12 12:30N 54°42' E 014°05'2110.4
2017-Apr-12 10:30N 54°40' E 014°41'611.3
2017-Apr-12 09:59N 54°42' E 014°51'  
2017-Apr-09 13:19N 55°38' E 019°53'2813.4
2017-Apr-09 11:13N 55°31' E 019°05'313.4
2017-Apr-09 10:59N 55°30' E 018°59'713.6
2017-Apr-09 10:27N 55°28' E 018°47'613.5
2017-Apr-09 10:00N 55°27' E 018°37'6213.3
2017-Apr-09 05:20N 55°12' E 016°51'513.2
2017-Apr-09 04:56N 55°11' E 016°42'713.1
2017-Apr-09 04:23N 55°09' E 016°30'713.0
2017-Apr-09 03:50N 55°07' E 016°17'513.0
2017-Apr-09 03:27N 55°06' E 016°09'613.1
2017-Apr-09 03:00N 55°02' E 016°00'713.3
2017-Apr-09 02:30N 54°59' E 015°51'713.5
2017-Apr-09 01:58N 54°55' E 015°40'713.6
2017-Apr-09 01:28N 54°51' E 015°31'613.5
2017-Apr-09 01:00N 54°47' E 015°22'713.2
2017-Apr-09 00:30N 54°43' E 015°13'713.0
2017-Apr-09 00:00N 54°39' E 015°03'712.7
2017-Apr-08 23:29N 54°37' E 014°53'613.2
2017-Apr-08 23:00N 54°36' E 014°42'1013.4
2017-Apr-08 22:15N 54°35' E 014°24'513.3
2017-Apr-08 21:52N 54°37' E 014°16'513.4
2017-Apr-08 21:30N 54°39' E 014°09'713.4
2017-Apr-08 20:59N 54°43' E 013°59'713.3
2017-Apr-08 20:25N 54°48' E 013°49'613.0
2017-Apr-08 20:00N 54°51' E 013°41'2713.2
2017-Apr-08 17:56N 55°09' E 013°05'713.0
2017-Apr-08 17:25N 55°13' E 012°56'513.1
2017-Apr-08 17:00N 55°16' E 012°48'612.5
2017-Apr-08 16:30N 55°18' E 012°38'612.2
2017-Apr-08 16:00N 55°25' E 012°40'611.9
2017-Apr-08 15:30N 55°30' E 012°43'510.9
2017-Apr-08 15:00N 55°34' E 012°49'9 9.3
2017-Apr-08 14:00N 55°43' E 012°52'612.1
2017-Apr-08 13:30N 55°48' E 012°47'612.0
2017-Apr-08 13:00N 55°54' E 012°44'612.7
2017-Apr-08 12:30N 56°00' E 012°40'611.5
2017-Apr-08 12:00N 56°05' E 012°35'612.2
2017-Apr-08 11:30N 56°09' E 012°26'2411.1
2017-Apr-08 09:19N 56°28' E 011°59'613.1
2017-Apr-08 08:54N 56°33' E 011°57'512.9
2017-Apr-08 08:30N 56°38' E 011°55'713.0
2017-Apr-08 08:00N 56°45' E 011°52'713.2
2017-Apr-08 07:27N 56°52' E 011°48'813.1
2017-Apr-08 06:48N 56°60' E 011°43'413.0
2017-Apr-08 06:30N 57°03' E 011°40'713.4
2017-Apr-08 05:59N 57°10' E 011°36'613.3
2017-Apr-08 05:30N 57°16' E 011°33'713.1
2017-Apr-08 04:59N 57°22' E 011°29'613.4
2017-Apr-08 04:30N 57°28' E 011°23'713.5
2017-Apr-08 03:59N 57°32' E 011°13'613.2
2017-Apr-08 03:30N 57°37' E 011°04'713.5
2017-Apr-08 03:00N 57°42' E 010°56'713.4
2017-Apr-08 02:30N 57°46' E 010°47'713.6
2017-Apr-08 02:00N 57°50' E 010°36'713.7
2017-Apr-08 01:30N 57°49' E 010°23'713.6
2017-Apr-08 01:00N 57°48' E 010°10'713.7
2017-Apr-08 00:30N 57°47' E 009°57'713.5
2017-Apr-08 00:00N 57°46' E 009°45'713.4
2017-Apr-07 23:30N 57°45' E 009°32'713.0
2017-Apr-07 23:00N 57°44' E 009°20'713.2
2017-Apr-07 22:30N 57°43' E 009°08'713.4
2017-Apr-07 21:59N 57°42' E 008°55'713.6
2017-Apr-07 21:29N 57°41' E 008°42'613.3
2017-Apr-07 21:00N 57°40' E 008°31'3113.1
2017-Apr-07 18:40N 57°42' E 007°34'213.2
2017-Apr-07 18:30N 57°42' E 007°29'612.8
2017-Apr-07 18:00N 57°42' E 007°17'612.7
2017-Apr-07 17:30N 57°43' E 007°05'612.7
2017-Apr-07 17:00N 57°43' E 006°54'612.3
2017-Apr-07 16:30N 57°43' E 006°42'611.8
2017-Apr-07 15:59N 57°45' E 006°31'612.1
2017-Apr-07 15:30N 57°48' E 006°23'612.2
2017-Apr-07 15:00N 57°53' E 006°14'612.0
2017-Apr-07 14:30N 57°57' E 006°06'2411.9
2017-Apr-07 12:30N 58°12' E 005°32'1212.3
2017-Apr-07 11:34N 58°20' E 005°15'112.6
2017-Apr-07 11:30N 58°20' E 005°14'612.7
2017-Apr-07 11:00N 58°24' E 005°05'713.1
2017-Apr-07 10:30N 58°28' E 004°55'713.4
2017-Apr-07 10:00N 58°33' E 004°46'713.2
2017-Apr-07 09:30N 58°37' E 004°36'  

Dump ship's entire track history